航空気象通報

ウインドサーファーのための航空気象通報による風予報です。

1/3-1/5の航空気象通報

2017年01月03日 22時47分37秒 | TAF
羽田空港
TAF RJTT 031105Z 0312/0418 36010KT 9999 FEW030 SCT060
BECMG 0400/0403 14006KT
BECMG 0406/0409 34020KT
TEMPO 0409/0415 34025G35KT
日本時間3日21時-4日09時:360度から10ノットの風
09-12時:風が変化
12-15時:140度から6ノットの風
15-18時:風が変化
18時-5日03時:340度から20ノットの風
但し、4日18-24時の間:ときどき340度から25ノット、突風35ノット


静岡空港
TAF RJNS 031110Z 0312/0418 27014KT 9999 FEW030
TEMPO 0323/0406 27024G34KT
日本時間3日21時-5日03時:270度から14ノットの風
但し、4日08-15時の間:ときどき270度から24ノット、突風34ノット


福岡空港
TAF RJFF 031108Z 0312/0418 16005KT 9999 FEW030
BECMG 0400/0403 34005KT
BECMG 0412/0415 14003KT
日本時間3日21時-4日09時:160度から5ノットの風
09-12時:風が変化
12-21時:340度から5ノットの風
21-24時:風が変化
5日00-03時:140度から3ノットの風


那覇空港
TAF ROAH 031105Z 0312/0418 04006KT 9999 FEW025 SCT045
BECMG 0400/0403 10005KT
日本時間3日21時-4日09時:040度から6ノットの風
09-12時:風が変化
12時-5日03時:100度から5ノットの風


石垣空港
TAF ROIG 031108Z 0312/0418 10005KT 9999 FEW030 BKN045
BECMG 0400/0403 14005KT
日本時間3日21時-4日09時:100度から5ノットの風
09-12時:風が変化
12時-5日03時:140度から5ノットの風


マウイのカフルイ空港
PHOG 031120Z 0312/0412 03005KT P6SM FEW045
FM032000 03013KT P6SM FEW030 SCT045
FM040400 05007KT P6SM FEW025 SCT045 AMD LTD TO VIS AND WIND TIL 031600
ハワイ時間3日02-10時:030度から5ノットの風
10-18時:030度から13ノットの風
18時-4日02時:050度から7ノットの風


サイパン空港
TAF PGSN 031127Z 0312/0412 06013KT P6SM VCSH SCT015 SCT030
TEMPO 0312/0316 4SM SHRA SCT007 OVC015
マリアナ時間3日22時-4日22時:060度から13ノットの風

但し、3日22時-4日02時の間:ときどき
ジャンル:
お天気
コメント   この記事についてブログを書く
この記事をはてなブックマークに追加
« 1/2-1/4の航空気象通報 | トップ | 1/4-1/6の航空気象通報 »
最近の画像もっと見る

コメントを投稿

ブログ作成者から承認されるまでコメントは反映されません。

TAF」カテゴリの最新記事